Time;durP1;ratioP1;P1;durP2;ratioP2;P2;SDS_P1;SDS_P2;PMS_P1;PMS_P2;Temp;Humidity;BMP_temperature;BMP_pressure;BME280_temperature;BME280_humidity;BME280_pressure;Samples;Min_cycle;Max_cycle;Signal;HPM_P1;HPM_P2
2021/09/14 00:01:44;;;;;;;1.80;1.60;;;11.60;99.90;;;;;;5046694;28;20877;-83
2021/09/14 00:04:09;;;;;;;1.97;1.30;;;11.50;99.90;;;;;;5029947;28;20221;-81
2021/09/14 00:06:39;;;;;;;2.93;1.97;;;11.40;99.90;;;;;;5046552;28;20326;-82
2021/09/14 00:09:06;;;;;;;1.73;1.60;;;11.40;99.90;;;;;;5061984;28;20634;-82
2021/09/14 00:11:33;;;;;;;3.50;1.80;;;11.40;99.90;;;;;;5064010;28;20184;-82
2021/09/14 00:13:59;;;;;;;3.53;1.90;;;11.40;99.90;;;;;;5062711;28;20721;-82
2021/09/14 00:16:25;;;;;;;2.93;1.23;;;11.30;99.90;;;;;;5046980;28;20709;-82
2021/09/14 00:18:51;;;;;;;1.57;1.00;;;11.40;99.90;;;;;;5045927;28;20696;-82
2021/09/14 00:21:17;;;;;;;2.53;1.87;;;11.40;99.90;;;;;;5047009;28;20212;-81
2021/09/14 00:23:43;;;;;;;3.30;1.43;;;11.40;99.90;;;;;;5063554;28;20674;-83
2021/09/14 00:26:09;;;;;;;4.63;2.20;;;11.40;99.90;;;;;;5062180;28;20274;-82
2021/09/14 00:28:34;;;;;;;4.77;2.57;;;11.40;99.90;;;;;;5029081;28;20217;-82
2021/09/14 00:31:00;;;;;;;2.93;2.73;;;11.40;99.90;;;;;;5045941;28;20239;-83
2021/09/14 00:33:26;;;;;;;6.60;1.83;;;11.50;99.90;;;;;;5059579;28;20225;-83
2021/09/14 00:35:52;;;;;;;1.97;1.67;;;11.40;99.90;;;;;;5046569;28;21062;-81
2021/09/14 00:38:17;;;;;;;3.33;1.77;;;11.40;99.90;;;;;;5062117;28;20253;-82
2021/09/14 00:40:43;;;;;;;2.23;1.93;;;11.30;99.90;;;;;;5030046;28;20292;-82
2021/09/14 00:43:09;;;;;;;4.17;1.90;;;11.30;99.90;;;;;;5026987;28;20780;-82
2021/09/14 00:45:35;;;;;;;2.13;1.73;;;11.30;99.90;;;;;;5010464;28;20683;-82
2021/09/14 00:48:00;;;;;;;3.80;1.63;;;11.40;99.90;;;;;;5042949;28;20212;-82
2021/09/14 00:50:26;;;;;;;1.47;1.37;;;11.40;99.90;;;;;;5010393;28;20280;-82
2021/09/14 00:52:52;;;;;;;4.03;1.60;;;11.40;99.90;;;;;;5041421;28;20291;-82
2021/09/14 00:55:18;;;;;;;2.63;1.73;;;11.30;99.90;;;;;;5033729;28;20250;-82
2021/09/14 00:57:44;;;;;;;1.77;1.27;;;11.30;99.90;;;;;;5016458;28;20771;-81
2021/09/14 01:00:10;;;;;;;9.30;1.97;;;11.30;99.90;;;;;;5045668;28;20292;-84
2021/09/14 01:02:35;;;;;;;2.53;1.73;;;11.20;99.90;;;;;;5060881;28;20250;-83
2021/09/14 01:05:04;;;;;;;2.77;1.63;;;11.20;99.90;;;;;;5024048;28;20690;-83
2021/09/14 01:07:31;;;;;;;2.77;1.70;;;11.20;99.90;;;;;;5058105;28;20236;-83
2021/09/14 01:09:59;;;;;;;9.53;2.00;;;11.20;99.90;;;;;;5047859;28;20213;-83
2021/09/14 01:12:25;;;;;;;5.57;1.73;;;11.10;99.90;;;;;;5055556;28;20225;-82
2021/09/14 01:14:52;;;;;;;3.33;2.10;;;11.10;99.90;;;;;;5038672;28;20194;-82
2021/09/14 01:17:18;;;;;;;1.57;1.47;;;11.20;99.90;;;;;;5034169;28;20221;-82
2021/09/14 01:19:44;;;;;;;2.67;1.40;;;11.20;99.90;;;;;;5039369;28;20220;-83
2021/09/14 01:22:10;;;;;;;6.57;2.90;;;11.20;99.90;;;;;;5010619;28;20217;-82
2021/09/14 01:24:36;;;;;;;2.80;2.13;;;11.20;99.90;;;;;;5010257;28;20225;-83
2021/09/14 01:27:02;;;;;;;6.30;2.87;;;11.10;99.90;;;;;;5040556;28;20556;-83
2021/09/14 01:32:11;;;;;;;3.00;2.20;;;11.00;99.90;;;;;;5047019;28;20209;-82
2021/09/14 01:34:37;;;;;;;8.00;1.40;;;10.90;99.90;;;;;;5044690;28;20228;-81
2021/09/14 01:37:03;;;;;;;2.73;1.90;;;10.80;99.90;;;;;;5061692;28;20209;-82
2021/09/14 01:39:28;;;;;;;6.07;2.00;;;10.80;99.90;;;;;;5063205;28;20213;-83
2021/09/14 01:41:54;;;;;;;1.30;1.13;;;10.80;99.90;;;;;;5039689;28;20250;-82
2021/09/14 01:44:20;;;;;;;1.97;1.20;;;10.80;99.90;;;;;;5044580;28;20241;-82
2021/09/14 01:46:48;;;;;;;5.50;1.53;;;10.80;99.90;;;;;;5043851;28;20217;-82
2021/09/14 01:49:13;;;;;;;2.33;1.40;;;10.80;99.90;;;;;;5061486;28;20216;-82
2021/09/14 01:51:40;;;;;;;2.83;1.90;;;10.80;99.90;;;;;;5028447;28;20271;-82
2021/09/14 01:54:06;;;;;;;4.83;1.90;;;10.80;99.90;;;;;;5060173;28;20233;-82
2021/09/14 01:56:32;;;;;;;2.03;1.77;;;10.80;99.90;;;;;;5045574;28;20374;-82
2021/09/14 01:58:58;;;;;;;1.67;1.50;;;10.80;99.90;;;;;;5060261;28;20217;-83
2021/09/14 02:01:31;;;;;;;5.87;1.57;;;10.70;99.90;;;;;;5062048;28;20232;-82
2021/09/14 02:04:06;;;;;;;5.30;2.27;;;10.70;99.90;;;;;;5061618;28;20224;-83
2021/09/14 02:06:52;;;;;;;2.33;2.13;;;10.70;99.90;;;;;;5050322;28;20266;-82
2021/09/14 02:58:41;;;;;;;2.83;2.00;;;10.60;99.90;;;;;;5050005;28;20209;-82
2021/09/14 03:01:08;;;;;;;2.83;1.97;;;10.50;99.90;;;;;;5064631;28;20235;-82
2021/09/14 03:03:40;;;;;;;2.03;1.70;;;10.50;99.90;;;;;;5081662;28;20233;-81
2021/09/14 03:06:06;;;;;;;2.03;1.77;;;10.40;99.90;;;;;;5047792;28;20675;-81
2021/09/14 03:08:33;;;;;;;2.60;2.13;;;10.50;99.90;;;;;;5049189;28;20778;-82
2021/09/14 03:11:05;;;;;;;12.87;2.07;;;10.50;99.90;;;;;;5057416;28;20271;-82
2021/09/14 03:13:30;;;;;;;2.87;1.90;;;10.60;99.90;;;;;;5064566;28;20209;-82
2021/09/14 03:15:56;;;;;;;2.87;1.60;;;10.70;99.90;;;;;;5063705;28;20227;-81
2021/09/14 03:18:22;;;;;;;2.37;2.17;;;10.80;99.90;;;;;;5048075;28;20837;-83
2021/09/14 03:20:48;;;;;;;3.20;2.30;;;10.90;99.90;;;;;;5031990;28;20662;-82
2021/09/14 03:23:13;;;;;;;4.27;2.03;;;10.90;99.90;;;;;;5047583;28;20255;-82
2021/09/14 03:25:39;;;;;;;2.53;1.77;;;11.00;99.90;;;;;;5065180;28;20296;-82
2021/09/14 03:28:05;;;;;;;3.87;2.07;;;11.10;99.90;;;;;;5057030;28;20240;-82
2021/09/14 03:30:31;;;;;;;4.90;1.90;;;11.20;99.90;;;;;;5063781;28;20309;-83
2021/09/14 03:32:57;;;;;;;3.67;2.53;;;11.30;99.90;;;;;;5048483;28;21226;-83
2021/09/14 03:35:22;;;;;;;3.07;2.07;;;11.40;99.90;;;;;;5032162;28;20217;-82
2021/09/14 03:37:48;;;;;;;3.33;2.43;;;11.40;99.90;;;;;;5064610;28;20220;-82
2021/09/14 03:40:14;;;;;;;4.73;2.20;;;11.50;99.90;;;;;;5038317;28;20224;-81
2021/09/14 03:42:40;;;;;;;3.10;1.90;;;11.50;99.90;;;;;;5064489;28;20237;-82
2021/09/14 03:45:06;;;;;;;2.07;1.57;;;11.60;99.90;;;;;;5047900;28;20550;-83
2021/09/14 03:47:31;;;;;;;7.07;2.60;;;11.60;99.90;;;;;;5048096;28;20228;-83
2021/09/14 03:49:57;;;;;;;6.10;2.77;;;11.70;99.90;;;;;;5031375;28;20665;-82
2021/09/14 03:52:23;;;;;;;2.77;1.87;;;11.80;99.90;;;;;;5039526;28;20205;-81
2021/09/14 03:54:49;;;;;;;3.23;2.30;;;11.90;99.90;;;;;;5063483;28;21262;-82
2021/09/14 03:57:14;;;;;;;3.50;2.30;;;12.00;99.90;;;;;;5063111;28;20320;-82
2021/09/14 03:59:41;;;;;;;2.23;1.70;;;12.00;99.90;;;;;;5064808;28;20193;-82
2021/09/14 04:07:51;;;;;;;6.70;2.33;;;12.20;99.90;;;;;;5039034;28;20274;-83
2021/09/14 04:10:17;;;;;;;9.17;2.90;;;12.20;99.90;;;;;;5064383;28;20228;-82
2021/09/14 04:12:43;;;;;;;5.70;2.20;;;12.30;99.90;;;;;;5064059;28;20217;-83
2021/09/14 04:15:09;;;;;;;3.17;1.63;;;12.30;99.90;;;;;;5030035;28;20193;-83
2021/09/14 04:17:34;;;;;;;4.17;2.07;;;12.30;99.90;;;;;;5037925;28;20190;-82
2021/09/14 04:20:00;;;;;;;7.00;2.40;;;12.40;99.90;;;;;;5041900;28;20701;-82
2021/09/14 04:22:26;;;;;;;8.03;1.80;;;12.40;99.90;;;;;;5025167;28;20309;-82
2021/09/14 04:24:52;;;;;;;1.57;1.23;;;12.40;99.90;;;;;;5058105;28;20262;-83
2021/09/14 04:27:18;;;;;;;2.13;1.83;;;12.50;99.90;;;;;;5043171;28;20772;-81
2021/09/14 04:29:44;;;;;;;3.70;2.00;;;12.40;99.90;;;;;;5062726;28;20198;-84
2021/09/14 04:32:10;;;;;;;3.10;1.53;;;12.50;99.90;;;;;;5061490;28;20225;-82
2021/09/14 04:34:36;;;;;;;4.77;2.03;;;12.40;99.90;;;;;;5063872;28;20217;-83
2021/09/14 04:37:02;;;;;;;6.47;1.77;;;12.40;99.90;;;;;;5046423;28;20965;-82
2021/09/14 04:39:27;;;;;;;3.90;2.30;;;12.50;99.90;;;;;;5046300;28;20315;-82
2021/09/14 04:41:53;;;;;;;3.37;1.63;;;12.60;99.90;;;;;;5063780;28;20696;-82
2021/09/14 04:44:19;;;;;;;1.80;1.53;;;12.50;99.90;;;;;;5045889;28;20541;-82
2021/09/14 04:46:45;;;;;;;5.43;1.90;;;12.50;99.90;;;;;;5062929;28;20214;-82
2021/09/14 04:49:11;;;;;;;2.53;1.60;;;12.60;99.90;;;;;;5062115;28;20209;-81
2021/09/14 04:51:37;;;;;;;8.17;2.07;;;12.60;99.90;;;;;;5045043;28;20244;-82
2021/09/14 04:54:03;;;;;;;2.17;1.43;;;12.60;99.90;;;;;;5044084;28;20537;-81
2021/09/14 04:56:28;;;;;;;3.37;2.03;;;12.60;99.90;;;;;;5044727;28;20247;-82
2021/09/14 04:58:54;;;;;;;3.33;1.73;;;12.50;99.90;;;;;;5062251;28;21010;-84
2021/09/14 05:01:20;;;;;;;3.57;1.53;;;12.50;99.90;;;;;;5058986;28;20266;-83
2021/09/14 05:03:48;;;;;;;1.93;1.83;;;12.50;99.90;;;;;;5062978;28;20233;-84
2021/09/14 05:06:14;;;;;;;2.87;1.73;;;12.60;99.90;;;;;;5057840;28;20193;-85
2021/09/14 05:08:40;;;;;;;3.77;1.60;;;12.60;99.90;;;;;;5047375;28;20280;-84
2021/09/14 05:11:07;;;;;;;2.33;1.13;;;12.60;99.90;;;;;;5045389;28;20236;-84
2021/09/14 05:13:34;;;;;;;1.77;1.57;;;12.60;99.90;;;;;;5079584;28;20243;-84
2021/09/14 05:15:59;;;;;;;6.60;2.03;;;12.70;99.90;;;;;;5046981;28;20213;-84
2021/09/14 05:18:26;;;;;;;3.43;1.93;;;12.70;99.90;;;;;;5029788;28;20720;-85
2021/09/14 05:20:53;;;;;;;5.17;2.30;;;12.70;99.90;;;;;;5062322;28;21481;-83
2021/09/14 05:23:40;;;;;;;1.40;1.10;;;12.80;99.90;;;;;;5046187;28;20214;-83
2021/09/14 05:26:06;;;;;;;6.97;2.00;;;12.80;99.90;;;;;;5060830;28;20225;-83
2021/09/14 05:28:33;;;;;;;4.30;2.53;;;12.90;99.90;;;;;;5054292;28;20232;-83
2021/09/14 05:30:59;;;;;;;2.73;1.80;;;12.90;99.90;;;;;;5062671;28;20324;-80
2021/09/14 05:33:25;;;;;;;4.70;2.00;;;12.90;99.90;;;;;;5037115;28;20228;-83
2021/09/14 05:35:55;;;;;;;6.83;1.60;;;13.00;99.90;;;;;;5045545;28;20316;-83
2021/09/14 05:38:23;;;;;;;8.57;1.80;;;13.00;99.90;;;;;;5055448;28;20271;-82
2021/09/14 05:40:54;;;;;;;5.07;1.73;;;13.00;99.90;;;;;;5060802;28;20873;-83
2021/09/14 05:43:22;;;;;;;2.13;1.57;;;13.10;99.90;;;;;;5061380;28;20236;-83
2021/09/14 05:45:48;;;;;;;2.40;2.17;;;13.00;99.90;;;;;;5061877;28;20221;-82
2021/09/14 05:48:14;;;;;;;2.10;1.67;;;13.10;99.90;;;;;;5053685;28;20272;-82
2021/09/14 05:50:40;;;;;;;4.93;3.00;;;13.20;99.90;;;;;;5060062;28;21428;-82
2021/09/14 05:53:06;;;;;;;3.50;2.60;;;13.20;99.90;;;;;;5028387;28;20221;-81
2021/09/14 05:55:38;;;;;;;3.50;2.20;;;13.30;99.90;;;;;;5060935;28;20258;-84
2021/09/14 05:58:05;;;;;;;6.40;1.63;;;13.30;99.90;;;;;;5062026;28;20225;-85
2021/09/14 06:00:32;;;;;;;2.57;2.17;;;13.40;99.90;;;;;;5063056;28;20528;-84
2021/09/14 06:02:58;;;;;;;2.97;1.60;;;13.50;99.90;;;;;;5062497;28;20216;-83
2021/09/14 06:05:24;;;;;;;4.10;3.23;;;13.60;99.90;;;;;;5061926;28;20247;-84
2021/09/14 06:07:49;;;;;;;2.90;2.13;;;13.80;99.90;;;;;;5060193;28;20224;-85
2021/09/14 06:10:15;;;;;;;2.33;1.30;;;14.00;99.90;;;;;;5062494;28;20665;-85
2021/09/14 06:12:41;;;;;;;2.40;1.50;;;14.10;99.90;;;;;;5039024;28;20221;-85
2021/09/14 06:15:08;;;;;;;5.37;1.87;;;14.20;99.90;;;;;;5020900;28;20181;-86
2021/09/14 06:17:34;;;;;;;6.67;1.83;;;14.30;99.90;;;;;;5030049;28;20650;-85
2021/09/14 06:20:00;;;;;;;3.50;1.73;;;14.30;99.90;;;;;;5062159;28;20221;-84
2021/09/14 06:22:26;;;;;;;2.90;2.00;;;14.10;99.90;;;;;;5061052;28;20221;-82
2021/09/14 06:24:51;;;;;;;2.73;2.20;;;14.10;99.90;;;;;;5056389;28;20216;-83
2021/09/14 06:27:18;;;;;;;2.70;1.37;;;14.20;99.90;;;;;;5060544;28;20741;-83
2021/09/14 06:29:43;;;;;;;2.67;2.10;;;14.20;99.90;;;;;;5061115;28;20200;-83
2021/09/14 06:32:10;;;;;;;2.17;1.40;;;14.30;99.90;;;;;;5043763;28;20217;-85
2021/09/14 06:34:36;;;;;;;4.30;1.80;;;14.60;99.90;;;;;;5046007;28;20221;-85
2021/09/14 06:37:03;;;;;;;4.13;1.87;;;15.10;99.90;;;;;;5062187;28;20355;-81
2021/09/14 06:39:29;;;;;;;5.30;1.40;;;16.00;99.90;;;;;;5062192;28;20307;-84
2021/09/14 06:41:55;;;;;;;3.40;1.80;;;17.20;99.90;;;;;;5062108;28;20213;-84
2021/09/14 06:44:22;;;;;;;4.87;2.00;;;18.70;99.90;;;;;;5062035;28;20344;-86
2021/09/14 06:46:47;;;;;;;5.43;1.80;;;19.80;99.90;;;;;;5054194;28;20260;-86
2021/09/14 06:49:13;;;;;;;2.30;1.20;;;19.60;99.90;;;;;;5045446;28;20312;-85
2021/09/14 06:51:39;;;;;;;4.87;1.63;;;19.90;99.90;;;;;;5063863;28;20274;-86
2021/09/14 06:54:05;;;;;;;4.30;1.63;;;20.60;99.90;;;;;;5049432;28;20204;-85
2021/09/14 06:56:30;;;;;;;1.93;1.77;;;21.70;99.90;;;;;;5049245;28;20225;-85
2021/09/14 06:58:56;;;;;;;4.97;1.87;;;21.70;99.90;;;;;;5065097;28;20577;-84
2021/09/14 07:01:22;;;;;;;2.87;1.73;;;21.70;99.90;;;;;;5063902;28;20220;-85
2021/09/14 07:03:48;;;;;;;4.67;1.70;;;22.10;99.90;;;;;;5032452;28;20751;-82
2021/09/14 07:06:15;;;;;;;5.27;1.70;;;21.40;99.90;;;;;;5065397;28;20228;-84
2021/09/14 07:08:41;;;;;;;2.03;1.37;;;21.00;99.90;;;;;;5065443;28;20181;-83
2021/09/14 07:11:07;;;;;;;4.87;2.07;;;20.30;99.90;;;;;;5048468;28;20336;-84
2021/09/14 07:13:33;;;;;;;4.33;2.07;;;20.00;99.90;;;;;;5063660;28;20311;-85
2021/09/14 07:15:58;;;;;;;4.23;2.27;;;19.70;99.90;;;;;;5049420;28;20966;-86
2021/09/14 07:18:24;;;;;;;2.63;1.90;;;19.70;99.90;;;;;;5047758;28;20306;-85
2021/09/14 07:20:50;;;;;;;4.90;2.17;;;19.70;99.90;;;;;;5064799;28;20961;-82
2021/09/14 07:23:16;;;;;;;3.30;2.10;;;19.40;99.90;;;;;;5065254;28;20592;-84
2021/09/14 07:25:42;;;;;;;2.17;1.97;;;19.50;99.90;;;;;;5047792;28;20209;-82
2021/09/14 07:28:09;;;;;;;3.00;1.70;;;19.50;99.90;;;;;;5047193;28;20221;-83
2021/09/14 07:30:36;;;;;;;2.33;1.83;;;20.00;99.90;;;;;;5062866;28;20308;-83
2021/09/14 07:33:02;;;;;;;2.73;2.43;;;20.10;99.90;;;;;;5064844;28;20239;-84
2021/09/14 07:35:30;;;;;;;3.23;2.40;;;19.80;99.90;;;;;;5040076;28;20189;-84
2021/09/14 07:37:56;;;;;;;5.00;2.00;;;20.10;99.90;;;;;;5049239;28;20205;-82
2021/09/14 07:40:23;;;;;;;2.67;2.10;;;19.70;99.90;;;;;;5058660;28;20229;-81
2021/09/14 07:42:48;;;;;;;2.33;1.93;;;19.50;99.90;;;;;;5046359;28;20243;-86
2021/09/14 07:45:14;;;;;;;3.80;2.57;;;18.90;99.90;;;;;;5030355;28;20189;-84
2021/09/14 07:47:40;;;;;;;5.07;2.10;;;18.40;99.90;;;;;;5047720;28;20201;-84
2021/09/14 07:50:07;;;;;;;3.97;2.53;;;18.40;99.90;;;;;;5045957;28;21430;-81
2021/09/14 07:52:32;;;;;;;3.07;2.23;;;18.50;99.90;;;;;;5056367;28;20209;-82
2021/09/14 07:54:58;;;;;;;4.50;2.37;;;18.50;99.90;;;;;;5059333;28;20607;-81
2021/09/14 07:57:24;;;;;;;2.93;2.27;;;19.00;99.90;;;;;;5062821;28;20217;-82
2021/09/14 07:59:50;;;;;;;3.23;2.30;;;19.30;99.90;;;;;;5048288;28;20190;-82
2021/09/14 08:02:15;;;;;;;3.97;2.50;;;19.50;99.90;;;;;;5047226;28;20213;-82
2021/09/14 08:04:41;;;;;;;4.60;2.10;;;19.00;99.90;;;;;;5063402;28;20320;-82
2021/09/14 08:07:07;;;;;;;3.03;2.40;;;18.60;99.90;;;;;;5047616;28;20228;-82
2021/09/14 08:09:33;;;;;;;3.97;2.20;;;18.40;99.90;;;;;;5063076;28;20224;-83
2021/09/14 08:11:59;;;;;;;3.30;2.67;;;18.70;99.90;;;;;;5043863;28;20193;-83
2021/09/14 08:14:25;;;;;;;8.33;3.13;;;18.90;99.90;;;;;;5047339;28;20182;-83
2021/09/14 08:16:51;;;;;;;5.27;2.43;;;18.90;99.90;;;;;;5063315;28;20233;-84
2021/09/14 08:19:17;;;;;;;4.43;2.70;;;18.80;99.90;;;;;;5064486;28;20300;-83
2021/09/14 08:21:43;;;;;;;4.97;2.67;;;18.80;99.90;;;;;;5039416;28;20670;-83
2021/09/14 08:24:11;;;;;;;4.40;2.40;;;19.10;99.90;;;;;;5061214;28;20220;-86
2021/09/14 08:26:37;;;;;;;8.00;2.87;;;19.50;99.90;;;;;;5045087;28;20181;-85
2021/09/14 08:29:04;;;;;;;4.23;2.83;;;19.50;99.90;;;;;;5043397;28;20213;-85
2021/09/14 08:31:30;;;;;;;7.17;3.40;;;19.60;99.90;;;;;;5027471;28;20221;-84
2021/09/14 08:33:57;;;;;;;5.50;2.47;;;19.80;99.90;;;;;;5043217;28;20224;-84
2021/09/14 08:36:22;;;;;;;7.30;3.33;;;19.40;99.90;;;;;;5055148;28;20602;-82
2021/09/14 08:38:48;;;;;;;8.10;3.50;;;19.40;99.90;;;;;;5060619;28;20205;-83
2021/09/14 08:41:15;;;;;;;5.17;3.60;;;19.70;99.90;;;;;;5046359;28;21007;-82
2021/09/14 08:43:43;;;;;;;7.33;3.60;;;20.00;99.90;;;;;;5060071;28;20233;-84
2021/09/14 08:46:11;;;;;;;5.27;3.40;;;20.30;99.90;;;;;;5062091;28;20300;-85
2021/09/14 08:48:36;;;;;;;5.17;2.93;;;20.30;99.90;;;;;;5061720;28;20202;-84
2021/09/14 08:51:03;;;;;;;5.00;3.07;;;20.80;99.90;;;;;;5027120;28;20534;-84
2021/09/14 08:53:31;;;;;;;5.70;2.67;;;20.30;99.90;;;;;;5046682;28;20696;-83
2021/09/14 08:55:57;;;;;;;6.83;3.10;;;19.90;99.90;;;;;;5057471;28;20205;-83
2021/09/14 08:58:22;;;;;;;4.97;2.77;;;19.50;99.90;;;;;;5046912;28;20705;-85
2021/09/14 09:00:49;;;;;;;4.13;2.53;;;19.40;99.90;;;;;;5046061;28;21820;-83
2021/09/14 09:03:28;;;;;;;4.30;3.20;;;19.30;99.90;;;;;;5056308;28;20307;-83
2021/09/14 09:05:55;;;;;;;6.37;3.30;;;19.10;99.90;;;;;;5062503;28;20697;-82
2021/09/14 09:08:26;;;;;;;3.67;3.00;;;18.90;99.90;;;;;;5063451;28;20224;-83
2021/09/14 09:11:03;;;;;;;5.63;3.70;;;18.80;99.90;;;;;;5058447;28;20255;-83
2021/09/14 09:13:31;;;;;;;7.47;3.97;;;18.90;99.90;;;;;;5062546;28;20216;-82
2021/09/14 09:15:57;;;;;;;7.53;3.27;;;18.80;99.90;;;;;;5054846;28;20221;-83
2021/09/14 09:18:23;;;;;;;5.53;3.53;;;18.60;99.90;;;;;;5051432;28;20210;-83
2021/09/14 09:20:49;;;;;;;4.87;3.10;;;18.60;99.90;;;;;;5035113;28;20196;-84
2021/09/14 09:23:24;;;;;;;5.60;3.63;;;18.60;99.90;;;;;;5042763;28;20226;-81
2021/09/14 09:25:51;;;;;;;6.03;3.40;;;18.60;99.90;;;;;;5039709;28;20213;-82
2021/09/14 09:28:22;;;;;;;8.30;3.90;;;18.60;99.90;;;;;;5038683;28;20229;-83
2021/09/14 09:30:57;;;;;;;3.73;2.80;;;18.60;99.90;;;;;;5039399;28;20218;-83
2021/09/14 09:33:32;;;;;;;3.87;2.60;;;19.10;99.90;;;;;;5037112;28;20210;-83
2021/09/14 09:36:06;;;;;;;4.13;2.77;;;19.10;99.90;;;;;;5039192;28;20185;-83
2021/09/14 09:38:47;;;;;;;6.10;3.37;;;19.30;99.90;;;;;;5039814;28;20206;-83
2021/09/14 09:41:18;;;;;;;5.23;2.53;;;19.60;99.90;;;;;;5041099;28;20245;-84
2021/09/14 09:43:44;;;;;;;4.23;2.63;;;19.70;99.90;;;;;;5042028;28;20253;-83
2021/09/14 09:46:11;;;;;;;4.60;3.03;;;19.50;99.90;;;;;;5043350;28;20313;-84
2021/09/14 09:48:38;;;;;;;4.90;2.13;;;19.30;99.90;;;;;;5036783;28;20213;-84
2021/09/14 09:51:04;;;;;;;5.53;2.50;;;19.20;99.90;;;;;;5039665;28;20721;-83
2021/09/14 09:53:34;;;;;;;4.67;2.97;;;19.70;99.90;;;;;;5041167;28;20178;-83
2021/09/14 09:56:02;;;;;;;7.07;3.20;;;20.20;99.90;;;;;;5042963;28;20218;-81
2021/09/14 09:58:29;;;;;;;3.87;3.00;;;20.50;99.90;;;;;;5043523;28;20224;-83
2021/09/14 10:01:12;;;;;;;5.73;3.90;;;20.50;99.90;;;;;;5043284;28;20300;-83
2021/09/14 10:03:47;;;;;;;6.87;3.27;;;20.40;99.90;;;;;;5042685;28;20213;-83
2021/09/14 10:06:15;;;;;;;4.27;2.67;;;20.40;99.90;;;;;;5042077;28;20553;-83
2021/09/14 10:08:41;;;;;;;7.97;3.50;;;20.50;99.90;;;;;;5042156;28;20214;-84
2021/09/14 10:11:07;;;;;;;5.77;3.10;;;20.40;99.90;;;;;;5035238;28;20237;-80
2021/09/14 10:13:40;;;;;;;6.87;4.43;;;20.50;99.90;;;;;;5036022;28;20225;-81
2021/09/14 10:16:08;;;;;;;5.87;3.47;;;20.90;99.90;;;;;;5041121;28;20230;-83
2021/09/14 10:18:34;;;;;;;5.90;3.47;;;20.70;99.90;;;;;;5039792;28;20255;-81
2021/09/14 10:21:03;;;;;;;13.13;4.07;;;20.60;99.90;;;;;;5024282;28;21085;-81
2021/09/14 10:23:34;;;;;;;4.90;3.13;;;20.70;99.90;;;;;;5009360;28;20217;-82
2021/09/14 10:26:09;;;;;;;6.07;4.00;;;20.90;99.90;;;;;;5042912;28;20221;-81
2021/09/14 10:28:49;;;;;;;7.57;3.87;;;20.80;99.90;;;;;;5042030;28;20218;-81
2021/09/14 10:31:42;;;;;;;6.50;4.40;;;20.90;99.90;;;;;;5044706;28;20213;-83
2021/09/14 10:34:11;;;;;;;7.57;4.00;;;20.60;99.90;;;;;;5043091;28;20272;-83
2021/09/14 10:36:40;;;;;;;6.90;3.33;;;20.90;99.90;;;;;;5043611;28;20248;-81
2021/09/14 10:39:25;;;;;;;8.77;3.67;;;20.70;99.90;;;;;;5043930;28;20198;-81
2021/09/14 10:41:52;;;;;;;5.33;3.80;;;20.90;99.90;;;;;;5029427;28;20194;-82
2021/09/14 10:44:32;;;;;;;9.87;4.27;;;20.90;99.90;;;;;;5042811;28;20749;-82
2021/09/14 10:47:21;;;;;;;5.60;3.63;;;21.00;99.90;;;;;;5043721;28;20232;-83
2021/09/14 10:50:00;;;;;;;7.67;4.33;;;21.30;99.90;;;;;;5044914;28;20206;-81
2021/09/14 10:52:51;;;;;;;7.77;4.00;;;21.40;99.90;;;;;;5043516;28;20228;-82
2021/09/14 10:55:19;;;;;;;9.17;5.80;;;21.60;99.90;;;;;;5028271;28;20305;-81
2021/09/14 10:57:51;;;;;;;8.33;4.53;;;21.60;99.90;;;;;;5044450;28;20280;-81
2021/09/14 11:00:25;;;;;;;9.80;4.60;;;21.50;99.90;;;;;;5045143;28;20301;-82
2021/09/14 11:02:58;;;;;;;8.00;4.57;;;21.00;99.90;;;;;;5030261;28;20191;-82
2021/09/14 11:05:29;;;;;;;8.03;4.47;;;21.10;99.90;;;;;;5028024;28;20313;-82
2021/09/14 11:08:01;;;;;;;5.93;3.37;;;21.20;99.90;;;;;;5060962;28;20276;-84
2021/09/14 11:10:34;;;;;;;6.70;4.32;;;20.90;99.90;;;;;;5054774;28;20235;-84
2021/09/14 11:13:00;;;;;;;8.03;5.13;;;20.90;99.90;;;;;;5065843;28;20260;-82
2021/09/14 11:15:26;;;;;;;9.57;4.40;;;20.80;99.90;;;;;;5064772;28;20217;-83
2021/09/14 11:17:52;;;;;;;7.17;4.60;;;21.00;99.90;;;;;;5064698;28;20216;-83
2021/09/14 11:20:20;;;;;;;8.33;5.00;;;21.10;99.90;;;;;;5020750;28;20218;-83
2021/09/14 11:22:48;;;;;;;9.23;4.47;;;21.20;99.90;;;;;;5044286;28;20216;-84
2021/09/14 11:25:20;;;;;;;9.33;4.73;;;21.30;99.90;;;;;;5043647;28;20217;-85
2021/09/14 11:28:02;;;;;;;10.50;4.77;;;21.10;99.90;;;;;;5041658;28;20815;-83
2021/09/14 11:30:31;;;;;;;6.63;4.57;;;21.10;99.90;;;;;;5036698;28;20361;-84
2021/09/14 11:32:59;;;;;;;8.70;4.80;;;21.00;99.90;;;;;;5060262;28;20201;-83
2021/09/14 11:35:34;;;;;;;8.27;4.63;;;21.00;99.90;;;;;;5043754;28;20207;-84
2021/09/14 11:38:05;;;;;;;6.20;4.30;;;21.20;99.90;;;;;;5045604;28;20206;-83
2021/09/14 11:40:34;;;;;;;5.70;4.07;;;21.30;99.90;;;;;;5045645;28;20229;-83
2021/09/14 11:43:02;;;;;;;10.20;4.50;;;21.30;99.90;;;;;;5044906;28;20274;-82
2021/09/14 11:45:32;;;;;;;9.57;4.80;;;21.00;99.90;;;;;;5044151;28;20249;-82
2021/09/14 11:48:00;;;;;;;8.03;5.17;;;20.90;99.90;;;;;;5028551;28;20482;-82
2021/09/14 11:50:30;;;;;;;12.63;6.07;;;21.20;99.90;;;;;;5043221;28;20197;-83
2021/09/14 11:53:17;;;;;;;8.60;4.73;;;21.10;99.90;;;;;;5041500;28;20284;-81
2021/09/14 11:55:50;;;;;;;10.53;4.53;;;21.10;99.90;;;;;;5044785;28;20274;-84
2021/09/14 11:58:34;;;;;;;9.67;4.77;;;21.10;99.90;;;;;;5044487;28;20351;-82
2021/09/14 12:01:11;;;;;;;9.13;4.87;;;21.00;99.90;;;;;;5039707;28;20221;-81
2021/09/14 12:03:48;;;;;;;8.13;5.83;;;21.30;99.90;;;;;;5043727;28;20240;-82
2021/09/14 12:06:28;;;;;;;9.43;4.90;;;21.30;99.90;;;;;;5044293;28;20197;-82
2021/09/14 12:09:08;;;;;;;13.50;5.20;;;21.40;99.90;;;;;;5042796;28;20549;-82
2021/09/14 12:11:35;;;;;;;8.03;4.63;;;21.20;99.90;;;;;;5043625;28;20217;-81
2021/09/14 12:14:05;;;;;;;10.30;5.20;;;21.20;99.90;;;;;;5043960;28;20225;-82
2021/09/14 12:16:32;;;;;;;7.07;5.47;;;21.30;99.90;;;;;;5063010;28;20227;-83
2021/09/14 12:19:01;;;;;;;10.53;5.23;;;21.30;99.90;;;;;;5063659;28;20686;-84
2021/09/14 12:21:28;;;;;;;10.00;6.07;;;21.10;99.90;;;;;;5063619;28;20900;-81
2021/09/14 12:23:55;;;;;;;9.13;5.90;;;21.30;99.90;;;;;;5030177;28;21150;-82
2021/09/14 12:26:24;;;;;;;13.87;5.93;;;21.30;99.90;;;;;;5045908;28;20576;-83
2021/09/14 12:28:52;;;;;;;6.90;4.90;;;21.30;99.90;;;;;;5063675;28;20304;-84
2021/09/14 12:31:18;;;;;;;8.47;5.33;;;21.30;99.90;;;;;;5062324;28;21107;-81
2021/09/14 12:33:44;;;;;;;10.10;6.07;;;21.10;99.90;;;;;;5059117;28;20617;-82
2021/09/14 12:36:11;;;;;;;9.13;5.77;;;21.20;99.90;;;;;;5029280;28;20740;-82
2021/09/14 12:38:37;;;;;;;6.90;5.83;;;21.40;99.90;;;;;;5062938;28;20200;-84
2021/09/14 12:41:03;;;;;;;11.17;4.77;;;21.60;99.90;;;;;;5055940;28;20612;-82
2021/09/14 12:43:29;;;;;;;9.70;5.73;;;21.30;99.90;;;;;;5060370;28;20248;-83
2021/09/14 12:45:55;;;;;;;8.43;5.07;;;21.40;99.90;;;;;;5045244;28;20620;-82
2021/09/14 12:48:21;;;;;;;7.83;5.33;;;21.40;99.90;;;;;;5064012;28;20252;-81
2021/09/14 12:50:46;;;;;;;8.53;5.13;;;21.20;99.90;;;;;;5063875;28;20197;-82
2021/09/14 12:53:12;;;;;;;7.47;5.50;;;21.30;99.90;;;;;;5039684;28;20572;-82
2021/09/14 12:55:38;;;;;;;9.60;5.27;;;21.30;99.90;;;;;;5028380;28;20221;-82
2021/09/14 12:58:06;;;;;;;8.70;4.43;;;21.20;99.90;;;;;;5063158;28;20308;-83
2021/09/14 13:00:33;;;;;;;12.23;5.97;;;21.30;99.90;;;;;;5079638;28;20208;-83
2021/09/14 13:02:59;;;;;;;9.33;5.50;;;21.60;99.90;;;;;;5057299;28;20217;-83
2021/09/14 13:05:26;;;;;;;10.83;6.43;;;21.70;99.90;;;;;;5045790;28;20189;-85
2021/09/14 13:07:52;;;;;;;10.07;6.67;;;21.60;99.90;;;;;;5061911;28;20236;-83
2021/09/14 13:10:18;;;;;;;7.83;5.10;;;21.50;99.90;;;;;;5058615;28;20260;-84
2021/09/14 13:12:48;;;;;;;11.70;5.20;;;21.10;99.90;;;;;;5028988;28;20228;-83
2021/09/14 13:18:00;;;;;;;8.93;5.90;;;21.60;99.90;;;;;;5062968;28;20177;-82
2021/09/14 13:20:27;;;;;;;11.13;6.67;;;21.50;99.90;;;;;;5045832;28;20187;-83
2021/09/14 13:22:53;;;;;;;7.37;5.20;;;21.40;99.90;;;;;;5055096;28;20283;-83
2021/09/14 13:25:21;;;;;;;8.30;5.53;;;21.30;99.90;;;;;;5054829;28;20220;-83
2021/09/14 13:27:47;;;;;;;12.53;6.23;;;21.20;99.90;;;;;;5061474;28;21137;-83
2021/09/14 13:30:13;;;;;;;11.90;6.17;;;21.30;99.90;;;;;;5063430;28;20209;-84
2021/09/14 13:32:39;;;;;;;9.43;5.57;;;21.70;99.90;;;;;;5048411;28;20185;-87
2021/09/14 13:35:05;;;;;;;11.60;5.47;;;21.90;99.90;;;;;;5047001;28;20218;-84
2021/09/14 13:37:32;;;;;;;9.17;5.93;;;22.10;99.90;;;;;;5045793;28;20221;-84
2021/09/14 13:39:58;;;;;;;12.07;6.17;;;22.10;99.90;;;;;;5043832;28;20279;-82
2021/09/14 13:42:25;;;;;;;6.97;4.60;;;21.80;99.90;;;;;;5060881;28;20470;-85
2021/09/14 13:47:17;;;;;;;7.13;5.07;;;21.40;99.90;;;;;;5063767;28;21097;-85
2021/09/14 13:49:43;;;;;;;8.83;5.67;;;21.30;99.90;;;;;;5046286;28;20233;-86
2021/09/14 13:52:09;;;;;;;11.13;6.60;;;21.30;99.90;;;;;;5029793;28;20720;-84